Time;durP1;ratioP1;P1;durP2;ratioP2;P2;SDS_P1;SDS_P2;PMS_P1;PMS_P2;Temp;Humidity;BMP_temperature;BMP_pressure;BME280_temperature;BME280_humidity;BME280_pressure;Samples;Min_cycle;Max_cycle;Signal;HPM_P1;HPM_P2
2021/06/22 00:00:07;;;;;;;7.30;6.60;;;;;;;23.02;76.46;94628.84;5115216;28;20448;-74
2021/06/22 00:02:34;;;;;;;7.60;6.37;;;;;;;23.01;76.48;94635.22;5063168;28;20442;-75
2021/06/22 00:05:01;;;;;;;7.80;7.03;;;;;;;22.57;78.55;94644.81;5115159;28;20455;-75
2021/06/22 00:07:27;;;;;;;7.43;6.60;;;;;;;22.56;78.68;94653.88;5115364;28;20445;-74
2021/06/22 00:09:56;;;;;;;7.63;5.83;;;;;;;22.42;80.00;94642.38;5062794;28;20452;-75
2021/06/22 00:12:23;;;;;;;7.73;6.73;;;;;;;22.48;80.26;94638.03;5115403;28;20454;-75
2021/06/22 00:14:50;;;;;;;9.53;6.40;;;;;;;22.49;80.69;94637.81;5115333;28;20442;-74
2021/06/22 00:17:17;;;;;;;9.03;6.03;;;;;;;22.50;81.24;94631.44;5115115;28;20487;-74
2021/06/22 00:19:44;;;;;;;7.10;6.40;;;;;;;22.54;81.61;94634.50;5115170;28;20442;-75
2021/06/22 00:22:11;;;;;;;8.00;7.30;;;;;;;22.58;81.48;94646.47;5078966;28;20439;-75
2021/06/22 00:24:38;;;;;;;12.43;6.83;;;;;;;22.61;81.54;94646.03;5114332;28;20460;-75
2021/06/22 00:27:07;;;;;;;9.30;6.47;;;;;;;22.64;81.42;94650.97;5115108;28;20444;-74
2021/06/22 00:29:34;;;;;;;7.20;6.50;;;;;;;22.65;81.39;94644.59;5114734;28;20445;-74
2021/06/22 00:32:01;;;;;;;7.73;6.90;;;;;;;22.68;81.60;94649.50;5114704;28;20880;-75
2021/06/22 00:34:28;;;;;;;7.37;6.67;;;;;;;22.64;81.32;94640.28;5114827;28;20463;-75
2021/06/22 00:36:54;;;;;;;7.37;6.77;;;;;;;22.67;81.28;94644.38;5114676;28;20489;-74
2021/06/22 00:39:21;;;;;;;7.13;6.53;;;;;;;22.68;80.98;94638.81;5114829;28;20447;-75
2021/06/22 00:41:48;;;;;;;9.50;7.50;;;;;;;22.69;80.81;94629.75;5114735;28;20442;-74
2021/06/22 00:44:16;;;;;;;9.67;6.97;;;;;;;22.70;81.02;94612.66;5114606;28;20445;-75
2021/06/22 00:46:43;;;;;;;7.43;6.37;;;;;;;22.71;80.71;94616.16;5114509;28;20486;-75
2021/06/22 00:49:10;;;;;;;9.13;6.63;;;;;;;22.70;80.32;94612.66;5114549;28;20441;-75
2021/06/22 00:51:37;;;;;;;7.47;6.40;;;;;;;22.63;80.29;94609.22;5114355;28;20449;-75
2021/06/22 00:54:05;;;;;;;7.87;7.10;;;;;;;22.59;80.32;94602.63;5114243;28;20445;-75
2021/06/22 00:56:32;;;;;;;6.97;6.40;;;;;;;22.57;80.52;94602.03;5114161;28;20486;-74
2021/06/22 00:59:00;;;;;;;7.47;6.87;;;;;;;22.47;80.95;94606.97;5114091;28;20447;-75
2021/06/22 01:01:30;;;;;;;9.13;7.70;;;;;;;22.41;81.26;94591.78;5114161;28;20906;-75
2021/06/22 01:03:57;;;;;;;7.77;7.00;;;;;;;22.34;81.98;94601.69;5113985;28;20451;-74
2021/06/22 01:06:25;;;;;;;7.23;6.53;;;;;;;22.21;81.95;94599.84;5114596;28;20443;-75
2021/06/22 01:08:52;;;;;;;8.37;6.97;;;;;;;22.09;83.10;94614.88;5114082;28;20448;-75
2021/06/22 01:11:18;;;;;;;8.80;7.30;;;;;;;22.12;83.02;94620.63;5061817;28;20812;-75
2021/06/22 01:13:45;;;;;;;7.47;6.87;;;;;;;22.07;83.41;94609.75;5113805;28;20439;-75
2021/06/22 01:16:23;;;;;;;8.23;7.47;;;;;;;22.09;83.04;94597.00;5113912;28;20924;-75
2021/06/22 01:18:58;;;;;;;7.70;7.07;;;;;;;22.10;83.04;94577.25;5113649;28;20507;-76
2021/06/22 01:21:27;;;;;;;8.03;6.27;;;;;;;22.11;83.16;94570.88;5113978;28;20466;-75
2021/06/22 01:23:54;;;;;;;7.20;6.60;;;;;;;22.15;83.13;94579.28;5113951;28;20917;-75
2021/06/22 01:26:21;;;;;;;8.03;7.30;;;;;;;22.21;83.13;94581.94;5113646;28;20490;-74
2021/06/22 01:28:48;;;;;;;8.20;7.40;;;;;;;22.20;83.14;94582.16;5113593;28;20452;-74
2021/06/22 01:31:16;;;;;;;8.40;6.80;;;;;;;21.81;86.17;94581.16;5113804;28;20580;-75
2021/06/22 01:33:47;;;;;;;6.03;5.63;;;;;;;21.80;86.66;94584.88;5113535;28;20446;-75
2021/06/22 01:36:14;;;;;;;7.50;6.90;;;;;;;21.71;87.78;94590.63;5113110;28;20445;-74
2021/06/22 01:38:42;;;;;;;8.57;7.80;;;;;;;21.61;88.60;94591.84;5113387;28;21047;-74
2021/06/22 01:41:10;;;;;;;8.67;7.87;;;;;;;21.56;89.17;94586.28;5113541;28;20440;-75
2021/06/22 01:43:37;;;;;;;8.40;7.57;;;;;;;21.61;89.57;94583.00;5060707;28;20912;-74
2021/06/22 01:46:04;;;;;;;8.70;7.90;;;;;;;21.58;90.19;94583.41;5060479;28;20520;-75
2021/06/22 01:48:31;;;;;;;8.00;7.30;;;;;;;21.61;90.20;94581.16;5113474;28;20504;-74
2021/06/22 01:50:59;;;;;;;12.60;7.67;;;;;;;21.57;90.09;94579.94;5113393;28;20453;-74
2021/06/22 01:53:26;;;;;;;9.47;8.57;;;;;;;21.43;91.72;94588.97;5113472;28;20476;-75
2021/06/22 01:55:55;;;;;;;8.73;7.80;;;;;;;21.44;92.14;94595.94;5113260;28;20448;-74
2021/06/22 01:58:22;;;;;;;8.93;8.03;;;;;;;21.53;91.31;94600.06;5113468;28;20580;-75
2021/06/22 02:00:52;;;;;;;9.20;8.30;;;;;;;21.63;91.10;94611.16;5061110;28;20532;-74
2021/06/22 02:03:20;;;;;;;8.00;7.30;;;;;;;21.70;90.28;94621.84;5113473;28;20793;-75
2021/06/22 02:05:49;;;;;;;8.63;7.80;;;;;;;21.77;90.35;94628.00;5113274;28;20920;-75
2021/06/22 02:08:17;;;;;;;8.13;7.37;;;;;;;21.84;89.68;94617.31;5113192;28;20498;-75
2021/06/22 02:10:44;;;;;;;8.37;7.37;;;;;;;21.88;89.78;94635.41;5113244;28;20501;-74
2021/06/22 02:13:14;;;;;;;9.47;7.60;;;;;;;21.80;90.18;94645.47;5113372;28;20452;-75
2021/06/22 02:15:43;;;;;;;9.63;8.70;;;;;;;21.82;90.32;94632.72;5113182;28;20444;-74
2021/06/22 02:18:10;;;;;;;9.13;7.70;;;;;;;21.86;90.15;94609.91;5113064;28;20535;-75
2021/06/22 02:20:39;;;;;;;9.87;8.80;;;;;;;21.91;89.66;94604.78;5113321;28;20859;-75
2021/06/22 02:23:06;;;;;;;9.13;8.13;;;;;;;21.93;89.53;94606.22;5112850;28;20448;-74
2021/06/22 02:25:34;;;;;;;8.07;7.37;;;;;;;21.98;89.00;94602.94;5113275;28;20449;-75
2021/06/22 02:28:03;;;;;;;12.90;8.53;;;;;;;22.03;88.62;94603.13;5061193;28;20452;-75
2021/06/22 02:30:32;;;;;;;9.37;8.40;;;;;;;22.04;88.03;94606.66;5113115;28;20605;-74
2021/06/22 02:32:59;;;;;;;10.77;7.63;;;;;;;22.02;87.33;94606.84;5112969;28;20448;-74
2021/06/22 02:35:26;;;;;;;8.83;8.03;;;;;;;22.01;87.00;94601.72;5113114;28;20805;-75
2021/06/22 02:37:53;;;;;;;11.37;8.30;;;;;;;22.01;86.55;94604.38;5112693;28;20515;-74
2021/06/22 02:40:23;;;;;;;8.83;8.00;;;;;;;22.00;86.25;94594.72;5113347;28;20499;-75
2021/06/22 02:42:51;;;;;;;9.30;8.10;;;;;;;22.03;86.20;94589.78;5112998;28;20452;-75
2021/06/22 02:45:19;;;;;;;9.23;7.47;;;;;;;22.03;85.86;94595.13;5113144;28;20514;-75
2021/06/22 02:47:48;;;;;;;8.80;8.10;;;;;;;21.99;85.98;94585.06;5114396;28;20473;-74
2021/06/22 02:50:16;;;;;;;10.60;7.30;;;;;;;21.99;85.76;94587.72;5116938;28;20449;-75
2021/06/22 02:52:43;;;;;;;8.90;8.10;;;;;;;21.98;85.68;94578.91;5116797;28;20510;-75
2021/06/22 02:55:19;;;;;;;10.20;7.43;;;;;;;21.96;85.88;94592.44;5116643;28;20445;-75
2021/06/22 02:57:46;;;;;;;7.83;7.13;;;;;;;21.93;85.94;94594.69;5116753;28;20483;-75
2021/06/22 03:00:15;;;;;;;8.47;7.67;;;;;;;21.90;86.50;94589.78;5116419;28;20440;-75
2021/06/22 03:02:42;;;;;;;8.00;7.20;;;;;;;21.88;86.69;94592.66;5063862;28;20941;-75
2021/06/22 03:05:12;;;;;;;16.60;8.97;;;;;;;21.89;86.88;94598.81;5116296;28;20443;-74
2021/06/22 03:07:40;;;;;;;10.93;7.67;;;;;;;21.88;87.12;94613.22;5116505;28;20974;-76
2021/06/22 03:10:09;;;;;;;8.70;7.63;;;;;;;21.91;87.17;94610.94;5116590;28;20440;-74
2021/06/22 03:12:36;;;;;;;9.43;7.67;;;;;;;21.94;87.36;94615.03;5064855;28;20451;-75
2021/06/22 03:15:04;;;;;;;9.20;8.33;;;;;;;21.99;87.24;94609.94;5116171;28;20494;-74
2021/06/22 03:17:31;;;;;;;10.07;7.80;;;;;;;22.06;86.94;94607.28;5116353;28;20572;-74
2021/06/22 03:19:58;;;;;;;9.60;8.70;;;;;;;22.12;87.08;94612.59;5063504;28;20453;-75
2021/06/22 03:22:26;;;;;;;10.40;8.30;;;;;;;21.91;88.36;94616.28;5063469;28;20480;-82
2021/06/22 03:24:53;;;;;;;7.70;7.00;;;;;;;22.09;85.49;94628.25;5116935;28;20211;-77
2021/06/22 03:27:21;;;;;;;7.73;7.00;;;;;;;22.32;85.78;94625.13;5116705;28;20441;-77
2021/06/22 03:29:48;;;;;;;8.67;7.20;;;;;;;22.55;83.78;94629.00;5116401;28;20453;-78
2021/06/22 03:32:15;;;;;;;8.13;7.43;;;;;;;22.86;83.17;94636.31;5116580;28;20506;-77
2021/06/22 03:34:42;;;;;;;7.80;7.13;;;;;;;23.17;81.80;94640.09;5116723;28;20501;-77
2021/06/22 03:37:09;;;;;;;7.27;6.67;;;;;;;23.41;80.98;94633.16;5116341;28;21011;-77
2021/06/22 03:39:38;;;;;;;8.00;7.40;;;;;;;23.60;81.66;94631.41;5116577;28;20475;-77
2021/06/22 03:42:08;;;;;;;10.87;9.00;;;;;;;23.76;80.30;94628.22;5116106;28;20445;-79
2021/06/22 03:44:35;;;;;;;9.00;8.10;;;;;;;23.87;79.97;94630.19;5116408;28;20447;-75
2021/06/22 03:47:03;;;;;;;8.47;7.77;;;;;;;23.92;78.95;94627.66;5115784;28;20973;-74
2021/06/22 03:49:30;;;;;;;8.47;7.63;;;;;;;23.97;79.27;94625.16;5115807;28;20523;-75
2021/06/22 03:51:57;;;;;;;9.07;8.07;;;;;;;24.00;79.04;94630.09;5115732;28;20883;-75
2021/06/22 03:54:24;;;;;;;9.40;8.10;;;;;;;23.95;79.12;94632.59;5115721;28;20453;-74
2021/06/22 03:56:54;;;;;;;9.30;8.50;;;;;;;24.01;79.06;94637.09;5115575;28;20473;-74
2021/06/22 03:59:21;;;;;;;10.30;8.50;;;;;;;24.07;78.86;94638.91;5114567;28;20521;-74
2021/06/22 04:01:48;;;;;;;8.57;7.80;;;;;;;24.17;78.29;94640.25;5115869;28;20450;-74
2021/06/22 04:04:15;;;;;;;12.67;9.00;;;;;;;24.32;77.07;94632.72;5115355;28;20495;-75
2021/06/22 04:06:42;;;;;;;9.40;7.60;;;;;;;24.41;77.07;94644.81;5115504;28;20446;-74
2021/06/22 04:09:09;;;;;;;8.83;8.07;;;;;;;24.50;76.78;94654.19;5115231;28;20452;-74
2021/06/22 04:11:36;;;;;;;8.50;7.70;;;;;;;24.64;76.18;94654.91;5057982;28;20447;-73
2021/06/22 04:14:05;;;;;;;8.40;7.60;;;;;;;24.71;75.12;94648.41;5042167;28;20475;-73
2021/06/22 04:16:32;;;;;;;11.10;8.43;;;;;;;24.82;74.31;94649.53;5097751;28;20522;-73
2021/06/22 04:18:59;;;;;;;9.93;7.60;;;;;;;24.96;73.95;94656.41;5114702;28;20525;-73
2021/06/22 04:21:26;;;;;;;11.10;9.33;;;;;;;25.13;73.64;94659.31;5115206;28;20438;-74
2021/06/22 04:23:53;;;;;;;8.67;7.80;;;;;;;25.27;72.79;94657.28;5114747;28;20467;-73
2021/06/22 04:26:20;;;;;;;11.00;8.70;;;;;;;25.45;72.54;94656.44;5115023;28;20435;-74
2021/06/22 04:28:47;;;;;;;9.73;8.93;;;;;;;25.64;71.77;94658.00;5062712;28;20496;-74
2021/06/22 04:31:15;;;;;;;12.27;8.87;;;;;;;25.80;70.70;94662.78;5062805;28;20443;-73
2021/06/22 04:33:42;;;;;;;14.00;8.40;;;;;;;25.83;69.81;94666.88;5114826;28;20503;-73
2021/06/22 04:36:09;;;;;;;9.27;8.33;;;;;;;25.90;69.98;94667.59;5114554;28;20478;-73
2021/06/22 04:38:37;;;;;;;11.40;8.83;;;;;;;26.02;69.16;94665.75;5114543;28;20543;-75
2021/06/22 04:41:04;;;;;;;10.23;9.23;;;;;;;26.23;68.44;94667.88;5114596;28;20451;-74
2021/06/22 04:43:31;;;;;;;11.13;9.20;;;;;;;26.59;68.28;94670.63;5114977;28;20462;-75
2021/06/22 04:45:58;;;;;;;15.00;9.23;;;;;;;26.89;67.01;94670.47;5114486;28;20481;-75
2021/06/22 04:48:26;;;;;;;9.83;8.23;;;;;;;27.13;66.15;94672.94;5114481;28;20447;-74
2021/06/22 04:50:58;;;;;;;9.67;8.33;;;;;;;27.31;65.28;94673.84;5061711;28;20438;-75
2021/06/22 04:53:25;;;;;;;14.63;9.83;;;;;;;27.50;65.35;94678.00;5114321;28;20447;-75
2021/06/22 04:55:52;;;;;;;14.20;9.10;;;;;;;27.75;64.22;94670.41;5114232;28;20447;-75
2021/06/22 04:58:19;;;;;;;10.90;8.00;;;;;;;27.99;63.43;94671.09;5114226;28;20483;-75
2021/06/22 05:00:46;;;;;;;12.90;9.87;;;;;;;28.16;61.81;94660.34;5114229;28;20447;-75
2021/06/22 05:03:13;;;;;;;15.17;9.60;;;;;;;28.41;61.69;94667.25;5113770;28;20454;-75
2021/06/22 05:05:41;;;;;;;12.00;8.97;;;;;;;28.57;60.66;94666.41;5113961;28;20450;-75
2021/06/22 05:08:08;;;;;;;12.90;8.57;;;;;;;28.73;60.63;94660.16;5114089;28;20443;-75
2021/06/22 05:10:35;;;;;;;12.70;9.13;;;;;;;28.92;59.73;94669.66;5114229;28;20443;-76
2021/06/22 05:13:02;;;;;;;15.63;9.57;;;;;;;29.02;59.26;94668.97;5113683;28;20439;-75
2021/06/22 05:15:29;;;;;;;16.83;9.80;;;;;;;29.03;58.99;94672.50;5113309;28;20445;-75
2021/06/22 05:17:56;;;;;;;11.17;10.07;;;;;;;29.02;58.24;94668.16;5113756;28;21025;-75
2021/06/22 05:21:18;;;;;;;9.10;8.17;;;;;;;29.04;58.12;94672.25;5113639;28;20439;-75
2021/06/22 05:23:47;;;;;;;8.53;7.33;;;;;;;28.76;58.23;94675.88;5113530;28;20815;-75
2021/06/22 05:26:14;;;;;;;9.63;8.63;;;;;;;28.71;59.68;94686.59;5113306;28;20926;-76
2021/06/22 05:28:40;;;;;;;16.13;9.60;;;;;;;28.68;59.02;94687.09;5113795;28;20817;-75
2021/06/22 05:31:07;;;;;;;9.27;8.30;;;;;;;28.58;59.70;94703.94;5113610;28;20439;-75
2021/06/22 05:33:34;;;;;;;14.90;8.90;;;;;;;28.76;59.80;94692.06;5060956;28;20835;-76
2021/06/22 05:36:01;;;;;;;13.50;9.80;;;;;;;28.80;59.61;94698.63;5113516;28;20447;-77
2021/06/22 05:38:28;;;;;;;14.27;9.17;;;;;;;28.86;59.34;94694.94;5113474;28;20804;-75
2021/06/22 05:40:56;;;;;;;12.70;10.23;;;;;;;29.03;59.43;94697.63;5113511;28;20442;-75
2021/06/22 05:43:23;;;;;;;11.30;8.93;;;;;;;29.24;58.18;94693.31;5113445;28;20477;-76
2021/06/22 05:45:50;;;;;;;9.93;8.93;;;;;;;29.27;58.23;94696.34;5113147;28;20459;-75
2021/06/22 05:48:17;;;;;;;12.23;9.40;;;;;;;28.90;58.25;94682.56;5113292;28;20941;-75
2021/06/22 05:50:44;;;;;;;11.40;10.30;;;;;;;28.71;59.07;94685.78;5113197;28;20916;-75
2021/06/22 05:53:11;;;;;;;15.10;9.10;;;;;;;28.79;59.40;94686.19;5113050;28;20443;-75
2021/06/22 05:55:38;;;;;;;10.57;9.67;;;;;;;28.74;59.70;94686.09;5060701;28;20446;-75
2021/06/22 05:58:06;;;;;;;15.03;9.53;;;;;;;28.85;59.54;94685.22;5113395;28;20446;-75
2021/06/22 06:00:34;;;;;;;13.50;10.47;;;;;;;28.49;60.55;94691.13;5113508;28;20443;-75
2021/06/22 06:03:01;;;;;;;14.67;9.00;;;;;;;28.53;60.54;94694.97;5113085;28;20454;-75
2021/06/22 06:05:28;;;;;;;10.77;9.67;;;;;;;28.80;60.71;94692.41;5113431;28;20435;-75
2021/06/22 06:07:55;;;;;;;15.77;9.93;;;;;;;29.05;59.16;94694.69;5113348;28;20431;-75
2021/06/22 06:10:23;;;;;;;12.07;9.40;;;;;;;29.32;58.80;94700.16;5113211;28;20450;-75
2021/06/22 06:12:50;;;;;;;11.83;10.00;;;;;;;29.47;58.39;94698.50;5113214;28;20828;-75
2021/06/22 06:15:20;;;;;;;12.23;9.77;;;;;;;29.51;58.71;94690.72;5113195;28;20796;-76
2021/06/22 06:17:47;;;;;;;13.70;10.27;;;;;;;29.37;57.29;94698.34;5113205;28;20782;-75
2021/06/22 06:20:15;;;;;;;14.90;10.43;;;;;;;29.35;58.60;94703.19;5113031;28;20484;-76
2021/06/22 06:22:43;;;;;;;11.67;9.40;;;;;;;29.58;58.39;94702.97;5114575;28;20525;-75
2021/06/22 06:25:13;;;;;;;15.57;11.10;;;;;;;29.53;57.85;94708.31;5117010;28;20534;-76
2021/06/22 06:27:47;;;;;;;17.80;9.93;;;;;;;29.49;58.13;94704.50;5117630;28;20445;-75
2021/06/22 06:30:17;;;;;;;11.20;9.50;;;;;;;29.62;57.53;94705.97;5117139;28;20519;-75
2021/06/22 06:32:46;;;;;;;13.57;11.17;;;;;;;29.78;58.22;94705.09;5117036;28;20453;-75
2021/06/22 06:35:14;;;;;;;14.30;11.90;;;;;;;29.71;58.21;94709.03;5116905;28;20449;-75
2021/06/22 06:37:41;;;;;;;13.53;11.40;;;;;;;29.51;57.28;94710.47;5117044;28;20450;-75
2021/06/22 06:40:10;;;;;;;12.43;11.13;;;;;;;29.28;58.88;94705.25;5116964;28;20492;-75
2021/06/22 06:42:37;;;;;;;11.70;10.60;;;;;;;29.18;58.62;94710.50;5116874;28;20466;-75
2021/06/22 06:45:06;;;;;;;19.23;10.73;;;;;;;29.04;59.16;94709.25;5116664;28;20443;-75
2021/06/22 06:47:33;;;;;;;14.43;11.97;;;;;;;29.16;57.82;94720.75;5117046;28;20545;-75
2021/06/22 06:50:01;;;;;;;16.57;12.40;;;;;;;29.17;59.00;94720.50;5117189;28;20453;-75
2021/06/22 06:52:28;;;;;;;22.70;12.57;;;;;;;29.30;58.42;94720.16;5116584;28;20449;-75
2021/06/22 06:54:56;;;;;;;17.23;11.43;;;;;;;29.67;57.35;94724.16;5116717;28;20783;-75
2021/06/22 06:57:23;;;;;;;16.80;10.93;;;;;;;29.96;56.02;94722.84;5116229;28;20442;-75
2021/06/22 06:59:50;;;;;;;17.73;12.70;;;;;;;30.29;55.26;94729.97;5116544;28;20485;-75
2021/06/22 07:02:16;;;;;;;16.50;11.60;;;;;;;30.34;55.44;94730.03;5116263;28;20443;-75
2021/06/22 07:04:43;;;;;;;13.27;11.50;;;;;;;30.29;54.77;94734.56;5116092;28;20435;-76
2021/06/22 07:07:12;;;;;;;20.10;10.93;;;;;;;30.02;56.41;94732.66;5116389;28;20461;-76
2021/06/22 07:09:38;;;;;;;13.57;12.20;;;;;;;29.93;55.80;94723.38;5116356;28;20445;-76
2021/06/22 07:12:06;;;;;;;20.30;13.00;;;;;;;29.95;55.57;94725.81;5116240;28;20430;-75
2021/06/22 07:14:33;;;;;;;20.80;11.50;;;;;;;30.04;55.91;94735.94;5116190;28;20473;-75
2021/06/22 07:17:00;;;;;;;12.30;11.00;;;;;;;30.16;57.24;94735.81;5116092;28;20522;-76
2021/06/22 07:19:27;;;;;;;13.30;11.70;;;;;;;30.16;55.61;94744.75;5063357;28;21332;-75
2021/06/22 07:21:54;;;;;;;15.60;11.57;;;;;;;30.31;55.75;94740.56;5116264;28;20448;-76
2021/06/22 07:24:25;;;;;;;16.23;11.23;;;;;;;30.44;54.89;94740.97;5115939;28;20453;-75
2021/06/22 07:26:52;;;;;;;15.00;11.40;;;;;;;30.71;54.63;94732.81;5116021;28;20452;-75
2021/06/22 07:29:19;;;;;;;15.00;11.60;;;;;;;30.77;54.76;94745.31;5113593;28;20561;-75
2021/06/22 07:31:46;;;;;;;12.17;10.97;;;;;;;30.91;53.35;94734.03;5104327;28;20452;-76
2021/06/22 07:34:15;;;;;;;15.10;11.87;;;;;;;31.04;52.94;94729.00;5111860;28;20447;-75
2021/06/22 07:36:42;;;;;;;12.50;11.07;;;;;;;31.22;52.28;94719.63;5115767;28;20450;-75
2021/06/22 07:39:08;;;;;;;17.50;11.73;;;;;;;31.36;51.81;94725.41;5114823;28;20824;-75
2021/06/22 07:41:37;;;;;;;18.40;10.60;;;;;;;31.49;51.12;94732.22;5097132;28;20527;-75
2021/06/22 07:44:04;;;;;;;19.03;12.37;;;;;;;31.05;53.51;94729.81;5113688;28;20447;-75
2021/06/22 07:46:32;;;;;;;12.60;10.70;;;;;;;31.04;53.30;94733.59;5095201;28;20538;-75
2021/06/22 07:49:00;;;;;;;14.90;11.70;;;;;;;30.89;54.20;94730.75;5107045;28;20443;-74
2021/06/22 07:51:27;;;;;;;13.83;11.63;;;;;;;30.28;56.32;94732.94;5101420;28;20463;-75
2021/06/22 07:53:54;;;;;;;18.13;11.30;;;;;;;30.33;55.72;94735.69;5094856;28;20444;-75
2021/06/22 07:56:21;;;;;;;15.70;12.67;;;;;;;30.19;55.52;94738.81;5095798;28;21193;-75
2021/06/22 07:58:50;;;;;;;20.83;11.13;;;;;;;30.32;56.81;94734.88;5061690;28;20483;-75
2021/06/22 08:01:17;;;;;;;15.50;12.47;;;;;;;30.33;55.12;94733.81;5048948;28;20519;-75
2021/06/22 08:03:44;;;;;;;14.83;11.60;;;;;;;30.34;55.70;94729.19;5105100;28;20431;-75
2021/06/22 08:06:12;;;;;;;13.47;11.80;;;;;;;30.48;55.00;94730.44;5114445;28;20930;-76
2021/06/22 08:08:39;;;;;;;17.77;11.23;;;;;;;30.66;55.47;94727.38;5098653;28;20535;-76
2021/06/22 08:11:06;;;;;;;15.63;11.13;;;;;;;30.88;55.08;94727.25;5094440;28;20950;-76
2021/06/22 08:13:33;;;;;;;16.43;12.23;;;;;;;30.99;54.63;94725.44;5094723;28;20448;-76
2021/06/22 08:16:02;;;;;;;17.10;11.20;;;;;;;31.08;52.80;94732.00;5070547;28;20444;-76
2021/06/22 08:18:29;;;;;;;15.60;11.50;;;;;;;31.09;53.27;94720.06;5094374;28;20478;-76
2021/06/22 08:20:57;;;;;;;16.13;12.03;;;;;;;31.14;53.37;94714.66;5105618;28;20486;-77
2021/06/22 08:23:24;;;;;;;15.93;11.40;;;;;;;31.24;53.13;94716.69;5102395;28;20939;-76
2021/06/22 08:25:53;;;;;;;20.80;13.03;;;;;;;31.32;53.17;94716.97;5049034;28;20472;-75
2021/06/22 08:28:20;;;;;;;16.97;12.37;;;;;;;31.30;53.89;94715.63;5094136;28;20444;-75
2021/06/22 08:30:47;;;;;;;20.03;13.47;;;;;;;30.39;54.04;94715.75;5094379;28;20924;-75
2021/06/22 08:33:16;;;;;;;21.17;13.23;;;;;;;30.14;57.37;94714.41;5094080;28;20448;-75
2021/06/22 08:35:43;;;;;;;15.07;12.23;;;;;;;30.36;56.82;94716.22;5102526;28;20989;-75
2021/06/22 08:38:11;;;;;;;15.70;12.07;;;;;;;30.51;56.99;94721.78;5093624;28;20440;-75
2021/06/22 08:40:40;;;;;;;14.17;12.67;;;;;;;30.69;56.31;94716.00;5075031;28;20899;-75
2021/06/22 08:43:07;;;;;;;13.70;11.87;;;;;;;30.76;56.85;94713.06;5093689;28;20439;-75
2021/06/22 08:45:36;;;;;;;24.63;13.20;;;;;;;30.56;57.16;94721.81;5093722;28;20455;-75
2021/06/22 08:48:04;;;;;;;17.33;12.00;;;;;;;30.79;56.51;94717.97;5093419;28;20451;-75
2021/06/22 08:50:34;;;;;;;19.60;11.20;;;;;;;30.89;58.01;94714.50;5095322;28;20447;-75
2021/06/22 08:53:01;;;;;;;19.90;12.33;;;;;;;30.81;55.77;94711.22;5114130;28;20764;-76
2021/06/22 08:55:31;;;;;;;14.10;11.93;;;;;;;30.76;56.25;94713.91;5093848;28;20444;-75
2021/06/22 08:58:01;;;;;;;17.83;12.37;;;;;;;30.86;56.89;94713.13;5093584;28;20526;-75
2021/06/22 09:00:30;;;;;;;17.43;12.37;;;;;;;30.65;55.39;94712.19;5057775;28;20483;-75
2021/06/22 09:03:10;;;;;;;13.73;12.30;;;;;;;30.88;57.70;94712.88;5093812;28;20447;-78
2021/06/22 09:05:40;;;;;;;17.33;12.00;;;;;;;31.01;55.16;94707.00;5093729;28;20542;-78
2021/06/22 09:08:17;;;;;;;27.93;11.90;;;;;;;31.00;54.85;94708.09;5094024;28;20474;-77
2021/06/22 09:10:45;;;;;;;14.17;12.50;;;;;;;30.96;56.17;94709.69;5093637;28;20881;-78
2021/06/22 09:13:14;;;;;;;18.10;13.33;;;;;;;30.73;55.47;94711.69;5093903;28;20439;-78
2021/06/22 09:15:43;;;;;;;17.43;13.30;;;;;;;30.60;55.25;94712.13;5093492;28;20443;-78
2021/06/22 09:18:27;;;;;;;20.33;12.30;;;;;;;30.32;57.77;94704.28;5093564;28;20440;-78
2021/06/22 09:20:57;;;;;;;15.40;11.80;;;;;;;30.10;56.48;94713.31;5093457;28;20552;-76
2021/06/22 09:23:26;;;;;;;21.07;12.07;;;;;;;30.32;58.07;94715.09;5093558;28;20497;-73
2021/06/22 09:25:55;;;;;;;22.30;13.20;;;;;;;30.41;57.84;94708.16;5093051;28;20447;-73
2021/06/22 09:28:28;;;;;;;16.70;12.67;;;;;;;30.50;57.40;94717.44;5093362;28;20452;-74
2021/06/22 09:31:01;;;;;;;13.70;12.30;;;;;;;30.28;57.16;94714.81;5093239;28;20444;-74
2021/06/22 09:33:32;;;;;;;17.63;12.23;;;;;;;30.46;57.23;94716.34;5093176;28;20444;-74
2021/06/22 09:36:05;;;;;;;20.53;12.03;;;;;;;30.61;57.11;94708.34;5093040;28;20498;-74
2021/06/22 09:38:35;;;;;;;23.17;13.43;;;;;;;30.74;57.00;94713.34;5092830;28;20867;-73
2021/06/22 09:41:19;;;;;;;246.07;200.10;;;;;;;30.98;56.57;94718.38;5092868;28;20562;-78
2021/06/22 09:43:48;;;;;;;280.03;120.40;;;;;;;31.12;56.66;94708.69;5093373;28;20666;-79
2021/06/22 09:46:17;;;;;;;298.33;142.82;;;;;;;31.19;55.40;94705.78;5093204;28;20531;-79
2021/06/22 09:49:00;;;;;;;175.13;83.03;;;;;;;31.11;54.59;94707.88;5093605;28;20834;-80
2021/06/22 09:51:32;;;;;;;84.47;42.37;;;;;;;30.72;57.18;94703.84;5093138;28;20931;-80
2021/06/22 09:54:14;;;;;;;59.87;33.27;;;;;;;30.55;58.42;94703.13;5093599;28;20440;-79
2021/06/22 09:56:52;;;;;;;39.33;20.90;;;;;;;30.46;59.38;94708.22;5093186;28;20505;-79
2021/06/22 09:59:19;;;;;;;57.93;30.53;;;;;;;30.38;59.23;94708.69;5041464;28;20468;-79
2021/06/22 10:01:46;;;;;;;41.50;20.60;;;;;;;30.54;57.10;94705.00;5093606;28;20452;-79
2021/06/22 10:04:19;;;;;;;31.03;16.53;;;;;;;30.54;57.97;94702.31;5093988;28;20490;-80
2021/06/22 10:06:53;;;;;;;32.67;17.08;;;;;;;30.59;57.98;94706.94;5093064;28;20538;-80
2021/06/22 10:09:25;;;;;;;32.50;15.53;;;;;;;30.61;58.31;94700.22;5093418;28;20212;-81
2021/06/22 10:12:05;;;;;;;19.00;13.23;;;;;;;30.73;57.02;94706.28;5093413;28;20525;-79
2021/06/22 10:14:34;;;;;;;17.53;12.70;;;;;;;30.76;59.34;94694.94;5042659;28;20481;-79
2021/06/22 10:17:03;;;;;;;22.53;14.70;;;;;;;30.33;58.01;94695.06;5093843;28;20493;-79
2021/06/22 10:19:31;;;;;;;24.73;13.70;;;;;;;30.49;59.69;94694.97;5095218;28;20448;-78
2021/06/22 10:22:00;;;;;;;22.57;13.50;;;;;;;30.49;59.46;94686.84;5093294;28;20448;-75
2021/06/22 10:24:29;;;;;;;25.10;13.10;;;;;;;30.29;58.40;94688.56;5092399;28;20480;-76
2021/06/22 10:26:59;;;;;;;31.00;17.77;;;;;;;30.51;59.53;94679.25;5094150;28;20993;-75
2021/06/22 10:29:27;;;;;;;33.10;18.20;;;;;;;30.47;59.41;94683.56;5112701;28;20453;-74
2021/06/22 10:31:55;;;;;;;22.60;12.80;;;;;;;30.56;57.78;94678.47;5112826;28;20443;-75
2021/06/22 10:34:23;;;;;;;29.10;13.50;;;;;;;30.75;57.75;94668.91;5060353;28;20584;-74
2021/06/22 10:36:55;;;;;;;25.87;13.40;;;;;;;30.78;58.22;94671.09;5112457;28;20439;-75
2021/06/22 10:39:30;;;;;;;18.80;12.73;;;;;;;30.62;56.72;94680.19;5112889;28;20511;-75
2021/06/22 10:42:00;;;;;;;31.30;13.60;;;;;;;30.85;56.45;94672.75;5113055;28;20925;-74
2021/06/22 10:44:51;;;;;;;29.13;13.63;;;;;;;31.04;56.70;94677.50;5076870;28;20443;-72
2021/06/22 10:47:24;;;;;;;22.20;13.27;;;;;;;31.22;56.26;94676.25;5029579;28;21000;-74
2021/06/22 10:50:03;;;;;;;19.67;12.70;;;;;;;31.33;54.13;94675.22;5029250;28;20931;-74
2021/06/22 10:52:50;;;;;;;16.73;12.93;;;;;;;31.37;55.31;94670.91;5029919;28;20525;-74
2021/06/22 10:55:21;;;;;;;27.33;14.03;;;;;;;31.44;55.19;94674.16;5029995;28;20458;-74
2021/06/22 10:58:10;;;;;;;26.33;13.03;;;;;;;31.52;53.28;94669.34;5029642;28;20453;-75
2021/06/22 11:01:16;;;;;;;23.43;12.93;;;;;;;31.65;53.42;94668.81;5029195;28;20494;-74
2021/06/22 11:03:43;;;;;;;35.10;14.20;;;;;;;31.68;53.91;94662.88;5029734;28;20454;-74
2021/06/22 11:06:27;;;;;;;24.20;11.93;;;;;;;31.82;53.91;94661.31;4996681;28;20439;-75
2021/06/22 11:08:54;;;;;;;32.03;14.50;;;;;;;31.82;52.86;94668.66;5030976;28;20496;-74
2021/06/22 11:11:25;;;;;;;25.73;13.53;;;;;;;31.82;53.99;94669.47;5033467;28;20842;-75
2021/06/22 11:13:57;;;;;;;19.83;12.50;;;;;;;31.73;56.55;94662.91;5033358;28;20548;-75
2021/06/22 11:16:30;;;;;;;24.70;12.40;;;;;;;31.76;52.77;94662.38;5033249;28;20943;-74
2021/06/22 11:19:03;;;;;;;29.33;13.30;;;;;;;31.74;50.26;94657.22;5033234;28;20447;-75
2021/06/22 11:21:32;;;;;;;28.27;12.30;;;;;;;31.74;49.58;94662.63;5033184;28;20517;-74
2021/06/22 11:24:04;;;;;;;31.20;12.77;;;;;;;31.78;49.32;94660.19;5076674;28;20435;-74
2021/06/22 11:26:53;;;;;;;38.23;12.33;;;;;;;31.91;49.11;94656.97;5115741;28;20205;-75
2021/06/22 11:29:22;;;;;;;25.67;11.73;;;;;;;32.06;49.58;94658.91;5116076;28;20447;-75
2021/06/22 11:31:57;;;;;;;25.93;10.20;;;;;;;32.12;50.75;94652.41;5115951;28;20455;-74